John Quigg — WDB9828 — position and weather

sailwx.info

Track history (hours):
 
Tides and Currents Weather Stations Pressure Air Temp Water Temp Dewpoint Dewpoint Depression Visibility Wind Speed Wind Dir Waves Ship Positions

John Quigg

Owner: Harley Marine Services, Inc, Seattle, WA. More information available from US FCC via Universal Licensing System and Coast Guard Vessel Documentation Center.

Last reported at 2015-Jan-26 05:10 UTC. Time now 2015-Jan-26 10:28 UTC.
Position N 33°45' W 118°13'.

MMSI: 365934954.

Date/timePositionNaut miles runAvg speedWind from/ knotsBaromVisibWave heightAir tempDewpointWater temp
2015-Jan-26 05:10N 33°45' W 118°13'1 1.9
2015-Jan-26 04:25N 33°46' W 118°13'1 1.6
2015-Jan-26 03:33N 33°45' W 118°13'0 0.1
2015-Jan-26 02:16N 33°45' W 118°13'0 0.4
2015-Jan-26 01:32N 33°45' W 118°13'0 0.1
2015-Jan-26 00:25N 33°45' W 118°13'0 0.2
2015-Jan-25 23:33N 33°45' W 118°13'1 0.1
2015-Jan-25 15:31N 33°45' W 118°13'4 2.6
2015-Jan-25 14:08N 33°46' W 118°17'3 0.3
2015-Jan-25 05:17N 33°46' W 118°13'1 0.7
2015-Jan-25 04:33N 33°46' W 118°13'1 0.2
2015-Jan-25 00:16N 33°45' W 118°13'0 0.0
2015-Jan-24 23:31N 33°45' W 118°13'0 0.1
2015-Jan-24 22:17N 33°45' W 118°13'1 1.3
2015-Jan-24 21:24N 33°46' W 118°13'1 1.0
2015-Jan-24 20:31N 33°46' W 118°13'2 0.3
2015-Jan-24 13:20N 33°46' W 118°15'0 0.1
2015-Jan-24 08:21N 33°46' W 118°16'3 3.1
2015-Jan-24 07:31N 33°43' W 118°16'1 0.7
2015-Jan-24 06:33N 33°44' W 118°16'0 0.0
2015-Jan-24 05:24N 33°44' W 118°16'2 1.1
2015-Jan-24 03:33N 33°46' W 118°15'2 2.0
2015-Jan-24 02:33N 33°44' W 118°16'3 0.3
2015-Jan-23 16:11N 33°46' W 118°13'1 1.1
2015-Jan-23 15:27N 33°46' W 118°13'3 0.3
2015-Jan-23 05:09N 33°45' W 118°16'0 0.0
2015-Jan-23 02:33N 33°45' W 118°16'2 0.3
2015-Jan-22 21:30N 33°43' W 118°16'0 0.4
2015-Jan-22 20:32N 33°43' W 118°16'1 0.6
2015-Jan-22 19:24N 33°44' W 118°16'0 0.0
2015-Jan-22 18:29N 33°44' W 118°16'0 0.0
2015-Jan-22 16:20N 33°44' W 118°16'0 0.2
2015-Jan-22 15:30N 33°44' W 118°16'0 0.1
2015-Jan-22 14:33N 33°44' W 118°16'0 0.0
2015-Jan-22 13:33N 33°44' W 118°16'0 0.0
2015-Jan-22 12:33N 33°44' W 118°16'0 0.0
2015-Jan-22 11:33N 33°44' W 118°16'1 0.6
2015-Jan-22 10:33N 33°43' W 118°16'4 3.7
2015-Jan-22 09:33N 33°46' W 118°13'4 3.6
2015-Jan-22 08:32N 33°43' W 118°15'1 1.3
2015-Jan-22 07:30N 33°44' W 118°16'0 0.0
2015-Jan-22 06:06N 33°44' W 118°16'0 0.0
2015-Jan-22 05:30N 33°44' W 118°16'2 1.7
2015-Jan-22 04:31N 33°45' W 118°17'1 1.4
2015-Jan-22 03:33N 33°44' W 118°17'3 0.3
2015-Jan-21 18:28N 33°45' W 118°13'1 1.4
2015-Jan-21 17:33N 33°47' W 118°13'0 0.0
2015-Jan-21 16:33N 33°47' W 118°13'0 0.3
2015-Jan-21 15:28N 33°46' W 118°13'1 0.1
2015-Jan-20 21:08N 33°45' W 118°13'0 0.0
2015-Jan-20 18:17N 33°45' W 118°13'1 1.2
2015-Jan-20 17:30N 33°46' W 118°13'2 1.5
2015-Jan-20 16:12N 33°45' W 118°12'1 0.2
2015-Jan-20 11:28N 33°45' W 118°13'0 0.2
2015-Jan-20 10:32N 33°45' W 118°13'1 0.9
2015-Jan-20 09:33N 33°46' W 118°13'4 3.0
2015-Jan-20 08:14N 33°43' W 118°16'1 0.5
2015-Jan-20 06:21N 33°44' W 118°16'0 0.0
2015-Jan-20 05:20N 33°44' W 118°16'0 0.0
2015-Jan-20 04:33N 33°44' W 118°16'1 1.0
2015-Jan-20 03:14N 33°45' W 118°16'0 0.2
2015-Jan-20 02:33N 33°45' W 118°16'1 1.1
2015-Jan-20 01:31N 33°44' W 118°16'0 0.1
2015-Jan-20 00:34N 33°44' W 118°16'0 0.0
2015-Jan-19 23:33N 33°44' W 118°16'0 0.0
2015-Jan-19 22:33N 33°44' W 118°16'0 0.0
2015-Jan-19 21:33N 33°44' W 118°16'0 0.0
2015-Jan-19 20:33N 33°44' W 118°16'0 0.0
2015-Jan-19 19:33N 33°44' W 118°16'0 0.0
2015-Jan-19 18:33N 33°44' W 118°16'2 0.6
2015-Jan-19 15:28N 33°46' W 118°16'0 0.0
2015-Jan-19 14:28N 33°46' W 118°16'2 1.8
2015-Jan-19 13:32N 33°45' W 118°14'1 1.1
2015-Jan-19 12:31N 33°44' W 118°13'0 0.4
2015-Jan-19 11:24N 33°45' W 118°12'3 2.7
2015-Jan-19 10:20N 33°44' W 118°16'0 0.0
2015-Jan-19 08:04N 33°44' W 118°16'2 0.6
2015-Jan-19 04:04N 33°45' W 118°13'1 2.5
2015-Jan-19 03:32N 33°46' W 118°14'3 2.7
2015-Jan-19 02:27N 33°44' W 118°16'2 2.0
2015-Jan-19 01:33N 33°46' W 118°16'0 0.2
2015-Jan-19 00:19N 33°45' W 118°16'2 1.7
2015-Jan-18 23:22N 33°44' W 118°16'0 0.0
2015-Jan-18 22:09N 33°44' W 118°16'0 0.0
2015-Jan-18 19:29N 33°44' W 118°16'0 0.0
2015-Jan-18 16:22N 33°44' W 118°16'0 0.1
2015-Jan-18 14:16N 33°44' W 118°16'0 0.0
2015-Jan-18 09:09N 33°44' W 118°16'0 0.0
2015-Jan-18 08:30N 33°44' W 118°16'0 0.0
2015-Jan-18 07:33N 33°44' W 118°16'0 0.0
2015-Jan-18 06:33N 33°44' W 118°16'0 0.1
2015-Jan-18 04:33N 33°44' W 118°16'2 1.6
2015-Jan-18 03:33N 33°45' W 118°16'5 3.6
2015-Jan-18 02:16N 33°41' W 118°14'5 0.8
2015-Jan-17 20:33N 33°45' W 118°11'4 1.9
2015-Jan-17 18:27N 33°44' W 118°16'3 3.0
2015-Jan-17 17:32N 33°46' W 118°13'0 0.4
2015-Jan-17 16:32N 33°46' W 118°13'2 1.6
2015-Jan-17 15:33N 33°46' W 118°15'3 2.4
2015-Jan-17 14:26N 33°43' W 118°16'1 0.6
2015-Jan-17 13:25N 33°44' W 118°16'0 0.1
2015-Jan-17 12:33N 33°44' W 118°16'2 1.3
2015-Jan-17 11:12N 33°45' W 118°16'2 2.5
2015-Jan-17 10:33N 33°44' W 118°16'0 0.0
2015-Jan-17 09:21N 33°44' W 118°16'0 0.0
2015-Jan-17 07:30N 33°44' W 118°16'0 0.0
2015-Jan-17 06:28N 33°44' W 118°16'0 0.0
2015-Jan-17 04:12N 33°44' W 118°16'1 0.4
2015-Jan-17 01:33N 33°45' W 118°16'4 4.4
2015-Jan-17 00:33N 33°45' W 118°11'0 0.0
2015-Jan-16 23:32N 33°45' W 118°11'4 1.2
2015-Jan-16 20:09N 33°44' W 118°16'0 0.0
2015-Jan-16 18:23N 33°44' W 118°16'1 1.2
2015-Jan-16 17:33N 33°43' W 118°15'3 0.9
2015-Jan-16 14:07N 33°45' W 118°13'0 0.4
2015-Jan-16 13:33N 33°45' W 118°13'1 1.5
2015-Jan-16 12:33N 33°44' W 118°12'2 2.3
2015-Jan-16 11:33N 33°46' W 118°13'  
Track history (hours):
 
Tides and Currents Weather Stations Pressure Air Temp Water Temp Dewpoint Dewpoint Depression Visibility Wind Speed Wind Dir Waves Ship Positions

John Quigg

Owner: Harley Marine Services, Inc, Seattle, WA. More information available from US FCC via Universal Licensing System and Coast Guard Vessel Documentation Center.

Last reported at 2015-Jan-26 05:10 UTC. Time now 2015-Jan-26 10:28 UTC.
Position N 33°45' W 118°13'.

MMSI: 365934954.

Date/timePositionNaut miles runAvg speedWind from/ knotsBaromVisibWave heightAir tempDewpointWater temp
2015-Jan-26 05:10N 33°45' W 118°13'1 1.9
2015-Jan-26 04:25N 33°46' W 118°13'1 1.6
2015-Jan-26 03:33N 33°45' W 118°13'0 0.1
2015-Jan-26 02:16N 33°45' W 118°13'0 0.4
2015-Jan-26 01:32N 33°45' W 118°13'0 0.1
2015-Jan-26 00:25N 33°45' W 118°13'0 0.2
2015-Jan-25 23:33N 33°45' W 118°13'1 0.1
2015-Jan-25 15:31N 33°45' W 118°13'4 2.6
2015-Jan-25 14:08N 33°46' W 118°17'3 0.3
2015-Jan-25 05:17N 33°46' W 118°13'1 0.7
2015-Jan-25 04:33N 33°46' W 118°13'1 0.2
2015-Jan-25 00:16N 33°45' W 118°13'0 0.0
2015-Jan-24 23:31N 33°45' W 118°13'0 0.1
2015-Jan-24 22:17N 33°45' W 118°13'1 1.3
2015-Jan-24 21:24N 33°46' W 118°13'1 1.0
2015-Jan-24 20:31N 33°46' W 118°13'2 0.3
2015-Jan-24 13:20N 33°46' W 118°15'0 0.1
2015-Jan-24 08:21N 33°46' W 118°16'3 3.1
2015-Jan-24 07:31N 33°43' W 118°16'1 0.7
2015-Jan-24 06:33N 33°44' W 118°16'0 0.0
2015-Jan-24 05:24N 33°44' W 118°16'2 1.1
2015-Jan-24 03:33N 33°46' W 118°15'2 2.0
2015-Jan-24 02:33N 33°44' W 118°16'3 0.3
2015-Jan-23 16:11N 33°46' W 118°13'1 1.1
2015-Jan-23 15:27N 33°46' W 118°13'3 0.3
2015-Jan-23 05:09N 33°45' W 118°16'0 0.0
2015-Jan-23 02:33N 33°45' W 118°16'2 0.3
2015-Jan-22 21:30N 33°43' W 118°16'0 0.4
2015-Jan-22 20:32N 33°43' W 118°16'1 0.6
2015-Jan-22 19:24N 33°44' W 118°16'0 0.0
2015-Jan-22 18:29N 33°44' W 118°16'0 0.0
2015-Jan-22 16:20N 33°44' W 118°16'0 0.2
2015-Jan-22 15:30N 33°44' W 118°16'0 0.1
2015-Jan-22 14:33N 33°44' W 118°16'0 0.0
2015-Jan-22 13:33N 33°44' W 118°16'0 0.0
2015-Jan-22 12:33N 33°44' W 118°16'0 0.0
2015-Jan-22 11:33N 33°44' W 118°16'1 0.6
2015-Jan-22 10:33N 33°43' W 118°16'4 3.7
2015-Jan-22 09:33N 33°46' W 118°13'4 3.6
2015-Jan-22 08:32N 33°43' W 118°15'1 1.3
2015-Jan-22 07:30N 33°44' W 118°16'0 0.0
2015-Jan-22 06:06N 33°44' W 118°16'0 0.0
2015-Jan-22 05:30N 33°44' W 118°16'2 1.7
2015-Jan-22 04:31N 33°45' W 118°17'1 1.4
2015-Jan-22 03:33N 33°44' W 118°17'3 0.3
2015-Jan-21 18:28N 33°45' W 118°13'1 1.4
2015-Jan-21 17:33N 33°47' W 118°13'0 0.0
2015-Jan-21 16:33N 33°47' W 118°13'0 0.3
2015-Jan-21 15:28N 33°46' W 118°13'1 0.1
2015-Jan-20 21:08N 33°45' W 118°13'0 0.0
2015-Jan-20 18:17N 33°45' W 118°13'1 1.2
2015-Jan-20 17:30N 33°46' W 118°13'2 1.5
2015-Jan-20 16:12N 33°45' W 118°12'1 0.2
2015-Jan-20 11:28N 33°45' W 118°13'0 0.2
2015-Jan-20 10:32N 33°45' W 118°13'1 0.9
2015-Jan-20 09:33N 33°46' W 118°13'4 3.0
2015-Jan-20 08:14N 33°43' W 118°16'1 0.5
2015-Jan-20 06:21N 33°44' W 118°16'0 0.0
2015-Jan-20 05:20N 33°44' W 118°16'0 0.0
2015-Jan-20 04:33N 33°44' W 118°16'1 1.0
2015-Jan-20 03:14N 33°45' W 118°16'0 0.2
2015-Jan-20 02:33N 33°45' W 118°16'1 1.1
2015-Jan-20 01:31N 33°44' W 118°16'0 0.1
2015-Jan-20 00:34N 33°44' W 118°16'0 0.0
2015-Jan-19 23:33N 33°44' W 118°16'0 0.0
2015-Jan-19 22:33N 33°44' W 118°16'0 0.0
2015-Jan-19 21:33N 33°44' W 118°16'0 0.0
2015-Jan-19 20:33N 33°44' W 118°16'0 0.0
2015-Jan-19 19:33N 33°44' W 118°16'0 0.0
2015-Jan-19 18:33N 33°44' W 118°16'2 0.6
2015-Jan-19 15:28N 33°46' W 118°16'0 0.0
2015-Jan-19 14:28N 33°46' W 118°16'2 1.8
2015-Jan-19 13:32N 33°45' W 118°14'1 1.1
2015-Jan-19 12:31N 33°44' W 118°13'0 0.4
2015-Jan-19 11:24N 33°45' W 118°12'3 2.7
2015-Jan-19 10:20N 33°44' W 118°16'0 0.0
2015-Jan-19 08:04N 33°44' W 118°16'2 0.6
2015-Jan-19 04:04N 33°45' W 118°13'1 2.5
2015-Jan-19 03:32N 33°46' W 118°14'3 2.7
2015-Jan-19 02:27N 33°44' W 118°16'2 2.0
2015-Jan-19 01:33N 33°46' W 118°16'0 0.2
2015-Jan-19 00:19N 33°45' W 118°16'2 1.7
2015-Jan-18 23:22N 33°44' W 118°16'0 0.0
2015-Jan-18 22:09N 33°44' W 118°16'0 0.0
2015-Jan-18 19:29N 33°44' W 118°16'0 0.0
2015-Jan-18 16:22N 33°44' W 118°16'0 0.1
2015-Jan-18 14:16N 33°44' W 118°16'0 0.0
2015-Jan-18 09:09N 33°44' W 118°16'0 0.0
2015-Jan-18 08:30N 33°44' W 118°16'0 0.0
2015-Jan-18 07:33N 33°44' W 118°16'0 0.0
2015-Jan-18 06:33N 33°44' W 118°16'0 0.1
2015-Jan-18 04:33N 33°44' W 118°16'2 1.6
2015-Jan-18 03:33N 33°45' W 118°16'5 3.6
2015-Jan-18 02:16N 33°41' W 118°14'5 0.8
2015-Jan-17 20:33N 33°45' W 118°11'4 1.9
2015-Jan-17 18:27N 33°44' W 118°16'3 3.0
2015-Jan-17 17:32N 33°46' W 118°13'0 0.4
2015-Jan-17 16:32N 33°46' W 118°13'2 1.6
2015-Jan-17 15:33N 33°46' W 118°15'3 2.4
2015-Jan-17 14:26N 33°43' W 118°16'1 0.6
2015-Jan-17 13:25N 33°44' W 118°16'0 0.1
2015-Jan-17 12:33N 33°44' W 118°16'2 1.3
2015-Jan-17 11:12N 33°45' W 118°16'2 2.5
2015-Jan-17 10:33N 33°44' W 118°16'0 0.0
2015-Jan-17 09:21N 33°44' W 118°16'0 0.0
2015-Jan-17 07:30N 33°44' W 118°16'0 0.0
2015-Jan-17 06:28N 33°44' W 118°16'0 0.0
2015-Jan-17 04:12N 33°44' W 118°16'1 0.4
2015-Jan-17 01:33N 33°45' W 118°16'4 4.4
2015-Jan-17 00:33N 33°45' W 118°11'0 0.0
2015-Jan-16 23:32N 33°45' W 118°11'4 1.2
2015-Jan-16 20:09N 33°44' W 118°16'0 0.0
2015-Jan-16 18:23N 33°44' W 118°16'1 1.2
2015-Jan-16 17:33N 33°43' W 118°15'3 0.9
2015-Jan-16 14:07N 33°45' W 118°13'0 0.4
2015-Jan-16 13:33N 33°45' W 118°13'1 1.5
2015-Jan-16 12:33N 33°44' W 118°12'2 2.3
2015-Jan-16 11:33N 33°46' W 118°13'  

Dump ship's entire track history